Time;durP1;ratioP1;P1;durP2;ratioP2;P2;SDS_P1;SDS_P2;PMS_P1;PMS_P2;Temp;Humidity;BMP_temperature;BMP_pressure;BME280_temperature;BME280_humidity;BME280_pressure;Samples;Min_cycle;Max_cycle;Signal;HPM_P1;HPM_P2
2022/01/04 00:02:09;;;;;;;6.20;3.27;;;;;;;12.21;54.71;99181.50;10562748;28;20210;-82
2022/01/04 00:07:11;;;;;;;3.77;2.93;;;;;;;12.55;54.21;99180.00;10556484;28;20222;-81
2022/01/04 00:17:34;;;;;;;3.77;2.10;;;;;;;12.39;54.59;99158.63;10577549;28;20257;-83
2022/01/04 00:22:37;;;;;;;7.57;3.50;;;;;;;12.48;54.64;99140.34;10572764;28;20267;-81
2022/01/04 00:27:39;;;;;;;4.63;3.17;;;;;;;12.48;53.85;99129.09;10561889;28;20225;-81
2022/01/04 00:32:42;;;;;;;5.73;2.97;;;;;;;12.54;53.89;99124.81;10553822;28;20230;-81
2022/01/04 00:37:44;;;;;;;6.73;2.80;;;;;;;11.73;55.58;99119.84;10533097;28;20647;-81
2022/01/04 00:42:46;;;;;;;6.73;2.63;;;;;;;11.84;54.56;99110.53;10558952;28;20197;-81
2022/01/04 00:52:57;;;;;;;5.30;2.60;;;;;;;12.74;51.95;99086.28;10560185;28;20539;-82
2022/01/04 00:58:00;;;;;;;3.37;2.30;;;;;;;12.12;54.16;99081.50;10534809;28;20215;-82
2022/01/04 01:03:08;;;;;;;4.27;2.70;;;;;;;11.77;55.11;99070.94;10536033;28;20482;-83
2022/01/04 01:08:10;;;;;;;4.33;2.97;;;;;;;12.16;54.20;99071.16;10576053;28;20221;-80
2022/01/04 01:13:14;;;;;;;5.27;2.43;;;;;;;12.72;51.80;99045.53;10572848;28;20251;-83
2022/01/04 01:18:17;;;;;;;3.57;2.40;;;;;;;11.93;54.46;99044.78;10538606;28;20642;-83
2022/01/04 01:23:20;;;;;;;2.67;1.97;;;;;;;12.10;53.60;99034.00;10564300;28;20198;-83
2022/01/04 01:28:23;;;;;;;3.27;1.80;;;;;;;11.78;54.58;99027.56;10555446;28;20197;-83
2022/01/04 01:33:27;;;;;;;3.17;1.97;;;;;;;11.46;54.65;99015.41;10557814;28;20223;-83
2022/01/04 01:38:29;;;;;;;2.67;1.77;;;;;;;11.29;56.28;99014.91;10550947;28;20226;-83
2022/01/04 01:43:32;;;;;;;5.27;2.10;;;;;;;11.44;55.70;99012.13;10546993;28;20318;-82
2022/01/04 01:48:34;;;;;;;2.47;1.93;;;;;;;11.16;56.44;99008.53;10572864;28;20201;-83
2022/01/04 01:53:36;;;;;;;3.70;2.30;;;;;;;12.22;52.87;98979.56;10546564;28;20646;-83
2022/01/04 01:58:38;;;;;;;3.53;2.50;;;;;;;12.05;53.77;98979.97;10524397;28;20573;-83
2022/01/04 02:03:41;;;;;;;2.53;2.20;;;;;;;12.25;52.09;98978.84;10508267;28;20537;-83
2022/01/04 02:08:43;;;;;;;3.20;2.67;;;;;;;11.95;53.17;98989.78;10507473;28;20252;-83
2022/01/04 02:13:45;;;;;;;3.10;2.80;;;;;;;12.00;53.21;98977.44;10549586;28;20233;-83
2022/01/04 02:18:47;;;;;;;4.47;3.07;;;;;;;12.41;52.32;98965.56;10563239;28;20282;-82
2022/01/04 02:23:49;;;;;;;4.03;3.03;;;;;;;11.18;55.58;98969.63;10564627;28;20606;-82
2022/01/04 02:28:52;;;;;;;4.00;3.00;;;;;;;11.71;53.77;98957.03;10582541;28;20190;-83
2022/01/04 02:33:54;;;;;;;3.20;2.90;;;;;;;11.90;53.42;98952.66;10572525;28;20206;-83
2022/01/04 02:38:56;;;;;;;3.83;3.43;;;;;;;12.24;52.67;98948.25;10539699;28;20253;-83
2022/01/04 02:43:58;;;;;;;6.17;3.93;;;;;;;12.33;51.78;98941.22;10550144;28;20202;-82
2022/01/04 02:49:00;;;;;;;6.30;4.47;;;;;;;11.98;52.84;98934.75;10581508;28;20574;-82
2022/01/04 02:54:03;;;;;;;7.33;5.33;;;;;;;12.04;52.76;98928.50;10571063;28;20203;-83
2022/01/04 02:59:05;;;;;;;7.30;4.93;;;;;;;11.92;52.94;98914.50;10539003;28;20215;-82
2022/01/04 03:04:08;;;;;;;4.83;4.27;;;;;;;12.20;51.77;98918.00;10527849;28;20206;-82
2022/01/04 03:09:10;;;;;;;6.20;4.87;;;;;;;11.66;53.09;98926.34;10554121;28;20581;-83
2022/01/04 03:14:12;;;;;;;5.43;4.00;;;;;;;11.97;52.55;98913.41;10573596;28;20234;-82
2022/01/04 03:19:14;;;;;;;5.23;4.37;;;;;;;12.13;52.46;98912.22;10562576;28;20290;-83
2022/01/04 03:24:17;;;;;;;6.37;3.90;;;;;;;11.80;53.16;98907.00;10581910;28;20225;-82
2022/01/04 03:29:20;;;;;;;6.83;4.87;;;;;;;12.12;52.90;98901.31;10563617;28;20198;-83
2022/01/04 03:34:22;;;;;;;5.57;4.00;;;;;;;11.08;55.28;98892.28;10586850;28;20202;-82
2022/01/04 03:39:24;;;;;;;7.50;3.90;;;;;;;11.25;55.35;98877.06;10553438;28;20230;-82
2022/01/04 03:44:27;;;;;;;4.90;4.40;;;;;;;11.60;54.31;98854.63;10544601;28;20210;-82
2022/01/04 03:49:29;;;;;;;5.17;3.93;;;;;;;11.43;54.63;98840.94;10544472;28;20660;-82
2022/01/04 03:54:32;;;;;;;6.37;4.30;;;;;;;11.91;53.50;98827.66;10528054;28;20545;-82
2022/01/04 03:59:34;;;;;;;4.70;3.63;;;;;;;11.42;54.11;98822.44;10542973;28;20263;-82
2022/01/04 04:04:37;;;;;;;4.93;4.00;;;;;;;11.55;54.50;98814.72;10532016;27;20266;-82
2022/01/04 04:09:40;;;;;;;5.40;4.30;;;;;;;12.08;52.86;98787.81;10579323;28;20275;-82
2022/01/04 04:14:42;;;;;;;5.03;4.17;;;;;;;10.87;56.80;98776.53;10518955;28;20226;-82
2022/01/04 04:19:49;;;;;;;4.73;4.27;;;;;;;10.88;56.56;98764.09;10557343;28;20657;-81
2022/01/04 04:24:51;;;;;;;4.97;3.87;;;;;;;11.24;55.86;98748.94;10554951;28;20262;-84
2022/01/04 04:29:53;;;;;;;4.43;4.03;;;;;;;11.23;55.63;98749.28;10575968;27;20202;-84
2022/01/04 04:34:55;;;;;;;5.10;4.10;;;;;;;11.29;55.21;98740.19;10559926;28;20610;-83
2022/01/04 04:39:58;;;;;;;4.30;3.87;;;;;;;10.90;56.36;98733.63;10544335;28;20233;-82
2022/01/04 04:45:00;;;;;;;4.27;3.57;;;;;;;11.63;54.12;98721.75;10534999;28;20198;-82
2022/01/04 04:50:04;;;;;;;6.23;4.23;;;;;;;11.40;55.05;98723.56;10555500;28;20475;-81
2022/01/04 04:55:07;;;;;;;5.00;3.93;;;;;;;11.30;55.03;98708.09;10555391;28;20202;-82
2022/01/04 05:00:10;;;;;;;5.50;4.20;;;;;;;11.58;54.27;98702.28;10520844;28;20226;-84
2022/01/04 05:05:12;;;;;;;4.40;3.90;;;;;;;11.56;53.94;98699.03;10539840;28;20599;-85
2022/01/04 05:10:15;;;;;;;4.17;3.63;;;;;;;11.84;53.13;98693.22;10534829;28;20228;-84
2022/01/04 05:15:17;;;;;;;5.00;3.97;;;;;;;11.37;54.78;98696.22;10541867;28;21007;-84
2022/01/04 05:20:19;;;;;;;5.90;3.37;;;;;;;11.05;56.21;98699.09;10559957;28;20217;-83
2022/01/04 05:25:21;;;;;;;5.57;3.87;;;;;;;11.89;53.28;98697.75;10534086;28;20210;-84
2022/01/04 05:30:24;;;;;;;5.03;3.50;;;;;;;11.64;54.05;98698.06;10517950;28;20199;-85
2022/01/04 05:35:27;;;;;;;4.90;4.17;;;;;;;11.58;53.40;98701.47;10577377;28;20614;-84
2022/01/04 05:40:29;;;;;;;4.87;3.90;;;;;;;11.80;52.89;98698.78;10556463;28;20225;-85
2022/01/04 05:45:31;;;;;;;5.07;3.80;;;;;;;11.42;53.76;98688.28;10572281;28;20208;-85
2022/01/04 05:50:34;;;;;;;4.70;3.63;;;;;;;11.76;53.08;98681.03;10559288;28;20186;-86
2022/01/04 05:55:37;;;;;;;13.40;9.80;;;;;;;11.25;54.54;98671.84;10518669;28;20203;-83
2022/01/04 06:00:39;;;;;;;5.70;4.13;;;;;;;11.72;52.97;98671.69;10518118;28;20635;-84
2022/01/04 06:05:41;;;;;;;6.17;4.30;;;;;;;11.63;52.99;98659.00;10576237;28;20231;-85
2022/01/04 06:10:44;;;;;;;5.23;3.63;;;;;;;11.20;54.29;98651.63;10575842;28;20433;-85
2022/01/04 06:15:46;;;;;;;6.33;4.17;;;;;;;11.23;53.93;98645.28;10534662;28;20226;-85
2022/01/04 06:20:49;;;;;;;6.03;4.50;;;;;;;10.86;55.22;98636.41;10518837;28;20227;-84
2022/01/04 06:25:52;;;;;;;8.13;4.50;;;;;;;11.72;52.80;98646.38;10559219;28;20233;-85
2022/01/04 06:30:55;;;;;;;7.90;4.30;;;;;;;11.58;53.04;98625.53;10549986;28;20215;-83
2022/01/04 06:35:57;;;;;;;7.43;5.50;;;;;;;11.04;54.53;98634.81;10552119;28;20651;-85
2022/01/04 06:40:59;;;;;;;6.13;4.30;;;;;;;11.71;52.77;98638.28;10574431;27;20235;-84
2022/01/04 06:46:01;;;;;;;7.80;5.33;;;;;;;11.08;54.08;98625.28;10541129;28;20264;-84
2022/01/04 06:51:03;;;;;;;8.07;5.40;;;;;;;11.25;54.30;98623.25;10573202;28;20531;-82
2022/01/04 06:56:06;;;;;;;8.23;5.50;;;;;;;11.93;52.49;98612.19;10573051;28;20202;-83
2022/01/04 07:01:08;;;;;;;7.87;5.77;;;;;;;11.48;53.67;98602.47;10527629;28;20315;-83
2022/01/04 07:06:10;;;;;;;6.67;5.33;;;;;;;11.14;54.40;98597.69;10567033;27;20234;-83
2022/01/04 07:11:13;;;;;;;6.23;4.83;;;;;;;10.73;55.68;98585.16;10587775;27;20271;-83
2022/01/04 07:16:16;;;;;;;7.10;4.73;;;;;;;11.62;52.95;98598.31;10587911;27;20257;-83
2022/01/04 07:21:20;;;;;;;7.07;4.90;;;;;;;10.99;54.04;98599.41;10592585;27;20253;-83
2022/01/04 07:26:23;;;;;;;13.33;9.33;;;;;;;10.99;54.51;98607.81;10557497;28;20206;-83
2022/01/04 07:31:25;;;;;;;6.30;4.43;;;;;;;11.33;53.02;98599.72;10571987;27;20254;-83
2022/01/04 07:36:30;;;;;;;6.40;4.93;;;;;;;10.87;55.04;98581.84;10567984;27;20295;-83
2022/01/04 07:41:33;;;;;;;8.63;5.03;;;;;;;11.43;53.73;98574.63;10568483;27;20279;-83
2022/01/04 07:46:35;;;;;;;7.93;6.07;;;;;;;10.92;54.98;98579.56;10598473;27;20205;-83
2022/01/04 07:51:38;;;;;;;9.70;6.00;;;;;;;11.76;52.84;98576.94;10573067;27;20237;-83
2022/01/04 07:56:40;;;;;;;9.60;6.57;;;;;;;11.92;51.75;98570.34;10565284;27;20300;-83
2022/01/04 08:01:42;;;;;;;11.33;6.70;;;;;;;11.40;53.32;98577.34;10552795;27;20263;-84
2022/01/04 08:06:45;;;;;;;10.40;6.90;;;;;;;11.43;53.58;98571.00;10567331;27;20244;-83
2022/01/04 08:11:47;;;;;;;9.47;6.67;;;;;;;11.06;54.39;98568.63;10568683;28;20602;-83
2022/01/04 08:16:49;;;;;;;9.97;7.10;;;;;;;11.53;53.29;98556.31;10582288;27;20252;-83
2022/01/04 08:21:52;;;;;;;9.23;6.47;;;;;;;10.85;54.48;98556.13;10578973;27;20594;-83
2022/01/04 08:26:54;;;;;;;9.33;7.10;;;;;;;11.27;53.38;98559.00;10555701;27;20511;-83
2022/01/04 08:31:57;;;;;;;8.23;6.63;;;;;;;10.68;55.72;98549.72;10580199;27;20206;-84
2022/01/04 08:37:00;;;;;;;9.07;7.33;;;;;;;11.33;53.56;98560.34;10557883;28;20507;-85
2022/01/04 08:42:03;;;;;;;11.10;7.43;;;;;;;11.58;52.80;98558.84;10543653;27;20210;-85
2022/01/04 08:47:09;;;;;;;11.53;7.43;;;;;;;10.98;54.52;98554.81;10536714;28;20213;-85
2022/01/04 08:52:12;;;;;;;10.13;7.43;;;;;;;11.23;53.96;98535.66;10550057;28;20209;-86
2022/01/04 08:57:14;;;;;;;10.80;8.47;;;;;;;10.99;54.68;98519.91;10565811;27;20562;-85
2022/01/04 09:02:16;;;;;;;12.00;8.60;;;;;;;11.82;52.85;98523.97;10572816;27;20549;-84
2022/01/04 09:07:18;;;;;;;10.27;8.40;;;;;;;11.54;53.40;98527.03;10558274;28;20275;-84
2022/01/04 09:12:24;;;;;;;14.03;10.03;;;;;;;12.01;51.53;98523.09;10547554;28;20257;-85
2022/01/04 09:22:48;;;;;;;10.70;8.70;;;;;;;11.71;52.16;98565.97;10552222;28;20695;-85
2022/01/04 09:27:50;;;;;;;10.47;6.60;;;;;;;11.37;53.65;98572.50;10561523;28;20246;-87
2022/01/04 09:32:52;;;;;;;11.97;7.47;;;;;;;10.46;56.41;98583.25;10539480;28;20220;-83
2022/01/04 09:37:55;;;;;;;10.70;7.93;;;;;;;11.78;52.52;98583.00;10538082;28;20210;-86
2022/01/04 09:42:57;;;;;;;9.63;7.17;;;;;;;11.66;53.33;98557.00;10548867;28;20247;-85
2022/01/04 09:48:00;;;;;;;10.70;7.43;;;;;;;11.95;52.25;98544.28;10552308;28;20263;-83
2022/01/04 09:53:02;;;;;;;10.57;7.40;;;;;;;11.82;52.58;98549.28;10537942;28;20651;-86
2022/01/04 09:58:05;;;;;;;10.87;7.67;;;;;;;11.40;54.08;98540.81;10535487;28;20283;-84
2022/01/04 10:03:16;;;;;;;10.90;7.03;;;;;;;11.12;55.15;98552.31;10553094;28;20621;-86
2022/01/04 10:08:18;;;;;;;10.37;7.30;;;;;;;10.69;55.42;98544.91;10560665;28;20619;-85
2022/01/04 10:13:20;;;;;;;10.80;6.37;;;;;;;11.25;54.75;98524.84;10542309;27;20276;-86
2022/01/04 10:18:25;;;;;;;10.93;6.30;;;;;;;11.20;54.61;98528.78;10561220;28;20280;-84
2022/01/04 10:23:28;;;;;;;11.67;6.40;;;;;;;11.38;54.01;98534.75;10562642;27;20229;-84
2022/01/04 10:28:34;;;;;;;10.87;6.67;;;;;;;10.74;55.93;98536.22;10561540;27;20224;-83
2022/01/04 10:33:36;;;;;;;9.80;6.67;;;;;;;11.03;54.55;98549.69;10544960;28;20237;-83
2022/01/04 10:38:44;;;;;;;11.60;7.73;;;;;;;10.84;55.21;98549.69;10556360;28;20263;-82
2022/01/04 10:43:50;;;;;;;11.03;7.77;;;;;;;11.09;54.98;98541.78;10573605;28;20198;-82
2022/01/04 10:48:52;;;;;;;11.80;7.63;;;;;;;10.34;57.74;98542.88;10556272;27;20194;-83
2022/01/04 10:54:06;;;;;;;12.00;7.07;;;;;;;10.83;56.45;98530.38;10545643;28;20206;-84
2022/01/04 10:59:10;;;;;;;13.00;7.30;;;;;;;10.90;54.82;98530.53;10554800;27;20279;-82
2022/01/04 11:04:14;;;;;;;10.37;6.20;;;;;;;11.58;53.69;98525.09;10566486;27;20655;-83
2022/01/04 11:09:19;;;;;;;8.00;5.93;;;;;;;10.15;57.01;98508.31;10574567;27;20595;-84
2022/01/04 11:14:21;;;;;;;8.80;5.80;;;;;;;10.56;56.48;98504.06;10535198;27;20251;-83
2022/01/04 11:19:24;;;;;;;8.80;5.93;;;;;;;10.67;56.63;98511.59;10530419;28;20258;-84
2022/01/04 11:24:26;;;;;;;10.27;6.40;;;;;;;10.92;55.64;98506.50;10546213;28;20275;-83
2022/01/04 11:29:34;;;;;;;8.33;6.10;;;;;;;11.07;54.60;98508.44;10527846;28;20253;-83
2022/01/04 11:35:19;;;;;;;9.70;6.87;;;;;;;11.85;52.71;98520.41;10585079;27;20202;-85
2022/01/04 11:40:39;;;;;;;10.80;8.00;;;;;;;11.08;55.62;98529.72;10586606;27;20653;-83
2022/01/04 11:45:48;;;;;;;11.70;8.23;;;;;;;11.49;53.77;98530.97;10595729;27;20251;-84
2022/01/04 11:50:52;;;;;;;14.33;9.43;;;;;;;11.67;54.05;98517.25;10562815;27;20206;-85
2022/01/04 11:56:02;;;;;;;15.40;9.97;;;;;;;11.78;53.15;98509.84;10570097;27;20197;-84
2022/01/04 12:01:05;;;;;;;14.27;10.10;;;;;;;11.45;54.51;98506.78;10554656;28;20234;-84
2022/01/04 12:06:08;;;;;;;16.80;10.93;;;;;;;10.30;57.99;98516.72;10568310;27;20225;-84
2022/01/04 12:11:26;;;;;;;15.30;11.50;;;;;;;11.88;53.99;98480.25;10581746;27;20193;-82
2022/01/04 12:16:30;;;;;;;15.57;11.17;;;;;;;10.87;56.24;98475.91;10555933;27;20229;-85
2022/01/04 12:21:35;;;;;;;17.07;10.47;;;;;;;11.47;55.19;98481.91;10549648;28;20229;-84
2022/01/04 12:26:38;;;;;;;13.63;10.83;;;;;;;11.27;55.28;98491.53;10548497;27;20202;-84
2022/01/04 12:31:52;;;;;;;14.70;10.37;;;;;;;11.77;54.02;98494.16;10570273;27;20221;-84
2022/01/04 12:36:54;;;;;;;15.63;10.87;;;;;;;11.57;54.65;98498.16;10538836;28;20228;-83
2022/01/04 12:41:57;;;;;;;14.60;10.97;;;;;;;11.74;54.86;98503.34;10549282;28;20565;-84
2022/01/04 12:47:00;;;;;;;14.40;10.67;;;;;;;11.42;54.94;98490.63;10557511;28;20583;-85
2022/01/04 12:52:05;;;;;;;14.30;10.40;;;;;;;11.11;55.69;98492.47;10566216;28;20267;-86
2022/01/04 12:57:11;;;;;;;15.93;11.27;;;;;;;11.49;55.15;98490.78;10539511;28;20198;-84
2022/01/04 13:02:14;;;;;;;17.07;11.97;;;;;;;11.48;55.18;98489.16;10546816;28;20257;-85
2022/01/04 13:07:20;;;;;;;17.47;12.77;;;;;;;10.96;57.31;98484.94;10577970;28;20503;-84
2022/01/04 13:12:26;;;;;;;19.37;13.20;;;;;;;11.28;55.92;98485.56;10541959;28;20287;-85
2022/01/04 13:17:29;;;;;;;18.00;12.90;;;;;;;11.70;53.99;98474.31;10552715;28;20827;-87
2022/01/04 13:22:31;;;;;;;21.27;14.40;;;;;;;11.50;55.09;98465.09;10577161;28;20242;-84
2022/01/04 13:27:41;;;;;;;20.60;14.30;;;;;;;11.62;54.07;98455.66;10556619;28;20619;-84
2022/01/04 13:32:49;;;;;;;19.77;12.93;;;;;;;10.74;56.31;98466.00;10562033;28;20227;-83
2022/01/04 13:37:54;;;;;;;19.60;13.07;;;;;;;11.61;54.54;98467.28;10568333;27;20630;-85
2022/01/04 13:43:05;;;;;;;20.03;13.43;;;;;;;10.84;56.28;98475.81;10563392;27;20217;-86
2022/01/04 13:48:07;;;;;;;19.60;13.53;;;;;;;10.99;56.99;98466.50;10558467;27;20271;-86
2022/01/04 13:53:12;;;;;;;19.60;14.03;;;;;;;11.65;55.13;98457.78;10571055;28;20210;-84
2022/01/04 13:58:39;;;;;;;17.73;13.63;;;;;;;11.63;54.51;98467.72;10569571;27;20205;-84
2022/01/04 14:03:43;;;;;;;20.50;12.83;;;;;;;11.96;53.66;98464.31;10586181;28;20228;-87
2022/01/04 14:08:49;;;;;;;22.43;13.43;;;;;;;11.21;56.30;98479.81;10591209;28;20222;-86
2022/01/04 14:13:52;;;;;;;17.93;12.77;;;;;;;11.07;56.54;98485.13;10577188;27;20229;-83
2022/01/04 14:19:09;;;;;;;19.93;12.30;;;;;;;10.48;58.69;98480.66;10563341;28;20271;-83
2022/01/04 14:24:31;;;;;;;12.07;8.43;;;;;;;9.83;59.33;98504.72;10568961;27;20209;-83
2022/01/04 14:29:35;;;;;;;10.20;7.10;;;;;;;10.96;55.45;98513.03;10571555;28;20194;-84
2022/01/04 14:34:38;;;;;;;7.40;5.70;;;;;;;9.90;57.84;98510.50;10556622;28;20202;-83
2022/01/04 14:39:41;;;;;;;8.33;5.30;;;;;;;10.83;55.40;98511.53;10567172;28;20215;-87
2022/01/04 14:44:44;;;;;;;4.80;4.00;;;;;;;10.31;55.68;98509.94;10551945;28;20668;-82
2022/01/04 14:49:46;;;;;;;2.70;2.07;;;;;;;10.21;54.80;98516.09;10556514;28;20253;-82
2022/01/04 14:54:48;;;;;;;4.60;2.27;;;;;;;10.48;54.47;98519.13;10547497;28;20199;-84
2022/01/04 14:59:52;;;;;;;2.23;1.97;;;;;;;10.29;53.68;98517.06;10552709;28;20246;-81
2022/01/04 15:04:56;;;;;;;2.17;1.70;;;;;;;10.70;53.24;98532.50;10548939;28;20289;-83
2022/01/04 15:09:59;;;;;;;3.03;1.80;;;;;;;10.56;53.88;98538.59;10544925;28;20711;-81
2022/01/04 15:15:03;;;;;;;3.00;1.70;;;;;;;10.35;54.49;98549.31;10536351;28;20238;-83
2022/01/04 15:20:06;;;;;;;4.30;2.20;;;;;;;10.76;53.78;98533.84;10560971;28;20242;-82
2022/01/04 15:25:09;;;;;;;5.13;2.27;;;;;;;10.94;52.91;98537.84;10544305;28;20233;-81
2022/01/04 15:30:16;;;;;;;3.30;2.33;;;;;;;10.82;53.72;98540.00;10546561;28;20202;-81
2022/01/04 15:35:19;;;;;;;3.93;2.80;;;;;;;10.56;53.88;98558.25;10541095;28;20473;-81
2022/01/04 15:40:21;;;;;;;4.67;2.73;;;;;;;10.74;53.90;98567.13;10559096;28;20214;-86
2022/01/04 15:45:23;;;;;;;5.17;3.00;;;;;;;10.63;54.97;98582.88;10569746;27;20226;-87
2022/01/04 15:50:26;;;;;;;4.03;3.03;;;;;;;10.77;54.42;98583.22;10565022;28;20590;-82
2022/01/04 15:55:28;;;;;;;5.73;3.23;;;;;;;10.87;53.68;98593.91;10541578;27;20278;-82
2022/01/04 16:00:30;;;;;;;6.50;3.10;;;;;;;11.07;53.40;98595.56;10543905;28;20271;-86
2022/01/04 16:05:32;;;;;;;5.53;2.90;;;;;;;11.24;53.29;98601.94;10548860;28;20528;-86
2022/01/04 16:10:35;;;;;;;7.13;3.17;;;;;;;11.06;53.33;98601.53;10547498;28;20552;-80
2022/01/04 16:15:47;;;;;;;4.07;2.63;;;;;;;10.57;54.96;98613.22;10560109;28;20244;-83
2022/01/04 16:26:10;;;;;;;4.40;3.17;;;;;;;11.22;52.86;98635.22;10559245;27;20201;-82
2022/01/04 16:31:13;;;;;;;5.50;4.03;;;;;;;10.71;54.54;98635.25;10529408;27;20287;-82
2022/01/04 16:36:15;;;;;;;7.43;5.17;;;;;;;11.14;53.25;98623.81;10537476;28;20206;-84
2022/01/04 16:41:17;;;;;;;9.23;6.67;;;;;;;9.95;56.24;98639.28;10564405;28;20299;-84
2022/01/04 16:46:20;;;;;;;7.83;6.67;;;;;;;10.79;55.29;98631.44;10563888;28;20224;-84
2022/01/04 16:51:22;;;;;;;9.63;7.60;;;;;;;9.41;59.15;98645.34;10546866;28;20545;-85
2022/01/04 16:56:25;;;;;;;9.90;8.43;;;;;;;11.07;54.00;98623.66;10533202;28;20279;-86
2022/01/04 17:01:48;;;;;;;9.77;7.20;;;;;;;10.87;54.11;98627.63;10548976;28;20218;-86
2022/01/04 17:06:52;;;;;;;10.30;8.47;;;;;;;10.92;53.62;98629.31;10523112;28;20264;-84
2022/01/04 17:16:56;;;;;;;12.27;8.80;;;;;;;11.46;52.29;98632.13;10537420;28;20247;-83
2022/01/04 17:22:00;;;;;;;11.40;8.43;;;;;;;10.77;54.48;98634.59;10558010;28;20304;-89
2022/01/04 17:27:22;;;;;;;11.80;9.40;;;;;;;11.41;52.66;98632.41;10538809;28;20202;-85
2022/01/04 17:32:24;;;;;;;18.17;10.07;;;;;;;11.64;52.16;98638.97;10559344;28;20206;-82
2022/01/04 17:37:27;;;;;;;13.57;10.30;;;;;;;11.48;52.35;98635.38;10553626;28;20233;-84
2022/01/04 17:42:50;;;;;;;14.43;10.80;;;;;;;11.31;52.89;98635.81;10542708;28;20225;-84
2022/01/04 17:47:53;;;;;;;13.80;10.83;;;;;;;10.87;53.87;98644.47;10553483;28;20202;-85
2022/01/04 17:52:57;;;;;;;12.57;8.80;;;;;;;10.42;54.17;98654.16;10561830;28;20194;-82
2022/01/04 17:58:02;;;;;;;13.33;9.37;;;;;;;10.33;54.59;98647.94;10536243;28;20203;-88
2022/01/04 18:03:09;;;;;;;9.40;8.03;;;;;;;10.66;53.44;98649.56;10551951;28;20519;-82
2022/01/04 18:08:12;;;;;;;9.73;6.27;;;;;;;11.13;52.04;98643.88;10547877;28;20218;-82
2022/01/04 18:13:15;;;;;;;9.63;7.00;;;;;;;10.58;53.05;98656.16;10544209;28;20230;-82
2022/01/04 18:18:18;;;;;;;7.60;5.67;;;;;;;9.93;55.30;98672.50;10574714;27;20218;-86
2022/01/04 18:23:22;;;;;;;6.20;3.50;;;;;;;10.13;52.03;98671.44;10575186;27;20293;-83
2022/01/04 18:28:26;;;;;;;4.50;2.80;;;;;;;9.44;54.12;98669.84;10560343;27;20667;-83
2022/01/04 18:33:30;;;;;;;4.00;3.17;;;;;;;9.77;52.79;98688.44;10573740;27;20662;-81
2022/01/04 18:38:33;;;;;;;4.70;3.30;;;;;;;10.03;51.89;98700.84;10561822;28;20587;-81
2022/01/04 18:43:38;;;;;;;5.63;3.03;;;;;;;9.95;51.94;98692.59;10575150;27;20241;-83
2022/01/04 18:48:41;;;;;;;4.67;3.37;;;;;;;9.86;53.08;98703.94;10532708;28;20202;-83
2022/01/04 18:53:46;;;;;;;4.97;3.20;;;;;;;10.58;49.81;98692.66;10529009;27;20203;-84
2022/01/04 18:58:48;;;;;;;4.60;3.37;;;;;;;10.43;50.97;98688.66;10530611;28;20235;-85
2022/01/04 19:03:52;;;;;;;6.70;3.33;;;;;;;10.16;50.33;98695.97;10546382;27;20718;-87
2022/01/04 19:08:55;;;;;;;3.50;2.10;;;;;;;10.10;50.54;98717.03;10557757;27;20570;-87
2022/01/04 19:14:00;;;;;;;3.03;2.00;;;;;;;9.87;51.33;98721.59;10539700;28;20250;-84
2022/01/04 19:19:06;;;;;;;2.37;1.73;;;;;;;10.32;49.34;98724.88;10554889;27;20214;-84
2022/01/04 19:24:10;;;;;;;1.73;1.13;;;;;;;10.15;48.72;98711.19;10544603;27;20296;-84
2022/01/04 19:29:12;;;;;;;1.20;0.90;;;;;;;10.32;48.85;98705.25;10558932;27;20296;-82
2022/01/04 19:39:37;;;;;;;4.63;1.57;;;;;;;10.16;49.75;98698.78;10541971;28;20199;-83
2022/01/04 19:44:39;;;;;;;1.73;1.20;;;;;;;10.36;48.25;98703.31;10546287;28;20311;-85
2022/01/04 19:49:41;;;;;;;1.40;1.03;;;;;;;10.30;48.92;98698.34;10559715;27;20201;-82
2022/01/04 19:54:44;;;;;;;1.47;1.10;;;;;;;9.56;49.72;98706.28;10573640;28;20205;-84
2022/01/04 19:59:46;;;;;;;2.07;1.20;;;;;;;10.23;49.05;98709.41;10545388;28;20207;-84
2022/01/04 20:04:49;;;;;;;2.03;1.40;;;;;;;9.16;51.33;98711.84;10556209;28;20209;-86
2022/01/04 20:09:52;;;;;;;2.77;1.20;;;;;;;9.20;50.63;98711.94;10576690;27;20272;-83
2022/01/04 20:14:54;;;;;;;3.43;1.23;;;;;;;9.88;49.42;98726.03;10568338;27;20226;-84
2022/01/04 20:19:57;;;;;;;1.13;0.60;;;;;;;9.82;47.47;98728.28;10564643;28;20199;-84
2022/01/04 20:24:59;;;;;;;3.67;1.00;;;;;;;9.31;49.26;98725.13;10552323;28;20202;-84
2022/01/04 20:30:03;;;;;;;2.43;1.10;;;;;;;9.85;47.98;98726.72;10565012;28;20212;-85
2022/01/04 20:35:06;;;;;;;3.57;1.13;;;;;;;10.18;49.48;98735.72;10570157;28;20719;-84
2022/01/04 20:40:11;;;;;;;4.63;0.87;;;;;;;10.20;48.83;98741.78;10566421;28;20268;-84
2022/01/04 20:45:14;;;;;;;4.33;1.40;;;;;;;10.19;48.59;98737.34;10534747;28;20214;-85
2022/01/04 20:50:17;;;;;;;2.40;1.20;;;;;;;10.00;48.89;98742.81;10565428;28;20202;-85
2022/01/04 20:55:21;;;;;;;4.83;1.20;;;;;;;9.94;48.19;98744.25;10559924;28;20256;-83
2022/01/04 21:00:23;;;;;;;2.57;1.23;;;;;;;9.75;49.25;98752.50;10572910;27;20232;-86
2022/01/04 21:05:29;;;;;;;4.37;1.23;;;;;;;9.85;48.87;98754.78;10547562;28;20205;-86
2022/01/04 21:10:32;;;;;;;4.30;1.57;;;;;;;9.83;49.41;98759.97;10575859;28;20651;-84
2022/01/04 21:15:34;;;;;;;3.27;1.23;;;;;;;10.00;48.57;98756.84;10568577;27;20361;-84
2022/01/04 21:20:37;;;;;;;4.33;1.30;;;;;;;9.71;49.30;98753.19;10542493;28;20287;-86
2022/01/04 21:25:39;;;;;;;5.57;1.67;;;;;;;9.83;48.48;98768.38;10574868;27;20197;-86
2022/01/04 21:30:43;;;;;;;4.10;1.10;;;;;;;9.64;48.18;98761.41;10568828;28;20189;-86
2022/01/04 21:35:45;;;;;;;5.93;1.67;;;;;;;9.24;49.46;98752.09;10576018;28;20676;-83
2022/01/04 21:40:48;;;;;;;5.70;1.63;;;;;;;9.79;48.54;98756.22;10562878;28;20198;-83
2022/01/04 21:45:50;;;;;;;8.87;1.70;;;;;;;9.30;49.89;98762.72;10562307;28;20194;-85
2022/01/04 21:50:52;;;;;;;3.37;1.60;;;;;;;9.75;49.42;98780.53;10545794;28;20199;-85
2022/01/04 21:55:55;;;;;;;5.13;1.23;;;;;;;9.04;49.94;98781.06;10557668;28;20531;-85
2022/01/04 22:01:00;;;;;;;3.17;1.47;;;;;;;9.16;48.76;98767.06;10556994;27;20278;-84
2022/01/04 22:06:02;;;;;;;4.00;1.50;;;;;;;9.64;48.82;98772.63;10599913;27;20264;-83
2022/01/04 22:11:05;;;;;;;5.23;1.40;;;;;;;9.51;48.73;98789.78;10588097;28;20186;-83
2022/01/04 22:16:07;;;;;;;4.83;1.50;;;;;;;9.60;48.54;98788.50;10592268;28;20218;-83
2022/01/04 22:21:09;;;;;;;4.23;1.40;;;;;;;9.45;49.38;98792.00;10561137;28;20214;-84
2022/01/04 22:26:11;;;;;;;3.87;1.40;;;;;;;9.41;49.02;98785.47;10539795;28;20209;-86
2022/01/04 22:31:13;;;;;;;4.40;1.50;;;;;;;8.77;49.40;98804.97;10563489;27;20202;-84
2022/01/04 22:36:16;;;;;;;3.00;1.20;;;;;;;8.95;49.74;98815.59;10598583;27;20210;-83
2022/01/04 22:41:18;;;;;;;4.50;0.93;;;;;;;9.34;48.56;98802.88;10583345;27;20228;-83
2022/01/04 22:46:20;;;;;;;4.13;1.37;;;;;;;8.07;51.02;98813.22;10632911;27;20194;-83
2022/01/04 22:51:23;;;;;;;5.57;0.90;;;;;;;7.75;51.10;98826.00;10616036;27;20197;-83
2022/01/04 22:56:25;;;;;;;4.53;0.60;;;;;;;8.23;48.86;98842.19;10612833;27;20247;-83
2022/01/04 23:01:28;;;;;;;5.30;0.60;;;;;;;8.70;48.09;98836.31;10547082;28;20236;-83
2022/01/04 23:06:30;;;;;;;8.43;0.70;;;;;;;8.25;49.42;98839.88;10529935;28;20284;-85
2022/01/04 23:11:33;;;;;;;4.10;0.87;;;;;;;7.28;51.26;98858.81;10579327;27;20570;-81
2022/01/04 23:16:35;;;;;;;3.00;0.70;;;;;;;7.18;50.34;98857.22;10623992;27;20287;-84
2022/01/04 23:21:37;;;;;;;2.50;0.40;;;;;;;7.68;49.53;98855.63;10593052;27;20551;-88
2022/01/04 23:26:40;;;;;;;2.43;1.23;;;;;;;7.18;51.46;98851.63;10600796;27;20201;-87
2022/01/04 23:31:42;;;;;;;4.13;0.57;;;;;;;7.16;52.04;98870.69;10528135;28;20202;-83
2022/01/04 23:37:01;;;;;;;6.17;1.33;;;;;;;6.97;52.71;98886.19;10562681;28;20202;-85
2022/01/04 23:42:03;;;;;;;4.67;0.70;;;;;;;7.32;50.89;98884.94;10545409;28;20214;-87
2022/01/04 23:47:05;;;;;;;4.93;0.60;;;;;;;7.17;50.91;98886.31;10567833;28;20246;-84
2022/01/04 23:52:08;;;;;;;5.13;0.83;;;;;;;7.79;49.72;98870.84;10552502;27;20198;-85
2022/01/04 23:57:13;;;;;;;4.83;0.53;;;;;;;7.07;51.64;98874.66;10588151;27;20200;-84
